sensor_id;sensor_type;location;lat;lon;timestamp;pressure;altitude;pressure_sealevel;temperature;humidity
30463;BME280;17256;43.618;25.336;2023-02-15T07:57:56;102066.91;;;5.24;99.45
30463;BME280;17256;43.618;25.336;2023-02-15T08:00:38;101957.50;;;4.87;94.72
30463;BME280;17256;43.618;25.336;2023-02-15T08:03:37;102275.44;;;6.58;95.24
30463;BME280;17256;43.618;25.336;2023-02-15T08:07:00;101893.75;;;4.14;95.58
30463;BME280;17256;43.618;25.336;2023-02-15T08:10:03;102058.91;;;5.11;95.61
30463;BME280;17256;43.618;25.336;2023-02-15T08:13:14;101988.81;;;4.81;94.40
30463;BME280;17256;43.618;25.336;2023-02-15T08:16:16;102032.84;;;4.86;94.87
30463;BME280;17256;43.618;25.336;2023-02-15T08:23:45;101969.91;;;4.69;97.82
30463;BME280;17256;43.618;25.336;2023-02-15T08:26:21;101878.91;;;4.18;92.57
30463;BME280;17256;43.618;25.336;2023-02-15T08:29:11;101809.31;;;3.61;94.26
30463;BME280;17256;43.618;25.336;2023-02-15T08:32:01;101806.22;;;3.77;94.07
30463;BME280;17256;43.618;25.336;2023-02-15T08:37:57;102278.63;;;6.84;92.91
30463;BME280;17256;43.618;25.336;2023-02-15T08:40:33;101918.06;;;4.81;90.31
30463;BME280;17256;43.618;25.336;2023-02-15T08:43:13;102017.16;;;5.43;90.51
30463;BME280;17256;43.618;25.336;2023-02-15T08:45:43;102113.63;;;6.25;88.95
30463;BME280;17256;43.618;25.336;2023-02-15T08:48:57;101821.13;;;4.37;88.04
30463;BME280;17256;43.618;25.336;2023-02-15T08:52:24;101889.72;;;5.25;85.62
30463;BME280;17256;43.618;25.336;2023-02-15T08:55:32;102021.63;;;6.06;85.51
30463;BME280;17256;43.618;25.336;2023-02-15T08:58:47;102088.50;;;6.22;84.98
30463;BME280;17256;43.618;25.336;2023-02-15T09:01:48;102276.50;;;7.48;86.26
30463;BME280;17256;43.618;25.336;2023-02-15T09:05:58;102004.47;;;5.95;84.61
30463;BME280;17256;43.618;25.336;2023-02-15T11:49:42;102171.06;;;11.02;56.79
30463;BME280;17256;43.618;25.336;2023-02-15T11:52:17;101929.31;;;9.31;56.97
30463;BME280;17256;43.618;25.336;2023-02-15T11:54:57;101883.34;;;9.24;57.22
30463;BME280;17256;43.618;25.336;2023-02-15T11:57:45;101764.91;;;8.69;57.20
30463;BME280;17256;43.618;25.336;2023-02-15T12:00:32;102171.00;;;11.28;57.76
30463;BME280;17256;43.618;25.336;2023-02-15T12:06:44;101931.13;;;9.22;56.77
30463;BME280;17256;43.618;25.336;2023-02-15T12:15:48;102034.69;;;10.15;56.23
30463;BME280;17256;43.618;25.336;2023-02-15T12:19:01;101810.41;;;8.88;55.88
30463;BME280;17256;43.618;25.336;2023-02-15T12:21:54;102036.31;;;10.52;56.08
30463;BME280;17256;43.618;25.336;2023-02-15T12:24:45;102132.31;;;10.88;55.30
30463;BME280;17256;43.618;25.336;2023-02-15T12:27:42;101869.66;;;9.50;56.12
30463;BME280;17256;43.618;25.336;2023-02-15T12:30:48;102137.69;;;10.97;55.09
30463;BME280;17256;43.618;25.336;2023-02-15T12:34:10;101824.16;;;9.40;55.04
30463;BME280;17256;43.618;25.336;2023-02-15T12:37:10;101792.34;;;8.95;54.39
30463;BME280;17256;43.618;25.336;2023-02-15T12:43:38;101748.16;;;8.72;55.01
30463;BME280;17256;43.618;25.336;2023-02-15T12:50:23;101775.56;;;8.98;54.35
30463;BME280;17256;43.618;25.336;2023-02-15T13:02:01;102104.78;;;10.79;55.48
30463;BME280;17256;43.618;25.336;2023-02-15T13:04:49;101802.53;;;9.37;55.61
30463;BME280;17256;43.618;25.336;2023-02-15T13:07:20;101970.63;;;10.33;55.43
30463;BME280;17256;43.618;25.336;2023-02-15T13:10:32;101771.69;;;9.09;54.56
30463;BME280;17256;43.618;25.336;2023-02-15T13:13:29;101964.94;;;10.26;54.54
30463;BME280;17256;43.618;25.336;2023-02-15T13:16:16;102107.84;;;11.10;54.41
30463;BME280;17256;43.618;25.336;2023-02-15T13:19:55;102108.44;;;11.30;54.05
30463;BME280;17256;43.618;25.336;2023-02-15T13:28:42;101947.97;;;9.97;53.28
30463;BME280;17256;43.618;25.336;2023-02-15T13:31:27;101697.03;;;8.55;54.00
30463;BME280;17256;43.618;25.336;2023-02-15T13:34:19;102102.31;;;11.02;54.07
30463;BME280;17256;43.618;25.336;2023-02-15T13:52:25;101970.81;;;9.79;55.08
30463;BME280;17256;43.618;25.336;2023-02-15T14:14:56;102085.56;;;10.45;57.26
30463;BME280;17256;43.618;25.336;2023-02-15T14:34:45;102098.56;;;10.17;56.77
30463;BME280;17256;43.618;25.336;2023-02-15T14:37:24;101937.84;;;9.28;57.63
30463;BME280;17256;43.618;25.336;2023-02-15T14:40:06;102096.59;;;10.10;57.06
30463;BME280;17256;43.618;25.336;2023-02-15T14:43:17;101934.03;;;9.03;57.09
30463;BME280;17256;43.618;25.336;2023-02-15T14:49:20;102099.56;;;9.73;57.11
30463;BME280;17256;43.618;25.336;2023-02-15T14:53:14;101942.63;;;8.72;57.56
30463;BME280;17256;43.618;25.336;2023-02-15T14:55:37;101964.63;;;8.80;57.78
30463;BME280;17256;43.618;25.336;2023-02-15T14:58:11;101975.22;;;8.93;58.08
30463;BME280;17256;43.618;25.336;2023-02-15T15:00:43;102018.00;;;9.21;58.04
30463;BME280;17256;43.618;25.336;2023-02-15T15:46:31;102090.28;;;8.19;67.93
30463;BME280;17256;43.618;25.336;2023-02-15T16:10:25;101881.91;;;5.93;73.99
30463;BME280;17256;43.618;25.336;2023-02-15T16:13:48;101684.59;;;4.64;75.30
30463;BME280;17256;43.618;25.336;2023-02-15T16:43:21;102101.88;;;6.04;90.00
30463;BME280;17256;43.618;25.336;2023-02-15T16:46:27;101894.16;;;4.85;89.75
30463;BME280;17256;43.618;25.336;2023-02-15T16:49:26;101857.19;;;4.50;90.59
30463;BME280;17256;43.618;25.336;2023-02-15T16:52:40;101956.97;;;5.25;89.29
30463;BME280;17256;43.618;25.336;2023-02-15T16:55:40;101851.50;;;4.53;89.43
30463;BME280;17256;43.618;25.336;2023-02-15T16:58:45;101809.44;;;4.25;90.00
30463;BME280;17256;43.618;25.336;2023-02-15T17:01:32;101923.66;;;5.01;89.85
30463;BME280;17256;43.618;25.336;2023-02-15T17:04:28;101702.91;;;3.45;91.72
30463;BME280;17256;43.618;25.336;2023-02-15T17:07:21;101858.53;;;4.24;92.70
30463;BME280;17256;43.618;25.336;2023-02-15T17:14:21;102106.00;;;5.98;91.66
30463;BME280;17256;43.618;25.336;2023-02-15T17:17:11;101898.66;;;4.75;91.50
30463;BME280;17256;43.618;25.336;2023-02-15T17:19:53;101662.47;;;3.20;91.09
30463;BME280;17256;43.618;25.336;2023-02-15T17:23:00;101855.97;;;4.43;91.01
30463;BME280;17256;43.618;25.336;2023-02-15T17:26:54;101846.81;;;4.44;89.96
30463;BME280;17256;43.618;25.336;2023-02-15T17:30:45;102024.28;;;5.34;91.75
30463;BME280;17256;43.618;25.336;2023-02-15T17:36:23;102121.88;;;5.93;91.06
30463;BME280;17256;43.618;25.336;2023-02-15T17:39:39;101847.72;;;4.33;91.38
30463;BME280;17256;43.618;25.336;2023-02-15T17:42:10;102108.25;;;5.93;90.96
30463;BME280;17256;43.618;25.336;2023-02-15T17:45:17;101934.53;;;4.69;91.94
30463;BME280;17256;43.618;25.336;2023-02-15T17:48:32;102122.56;;;5.74;92.37
30463;BME280;17256;43.618;25.336;2023-02-15T17:51:32;101875.19;;;4.19;91.63
30463;BME280;17256;43.618;25.336;2023-02-15T17:54:23;102076.44;;;5.30;92.87
30463;BME280;17256;43.618;25.336;2023-02-15T17:57:21;101829.56;;;3.80;93.02
30463;BME280;17256;43.618;25.336;2023-02-15T18:00:24;101945.00;;;4.52;94.15
30463;BME280;17256;43.618;25.336;2023-02-15T18:03:23;101968.31;;;4.77;95.35
30463;BME280;17256;43.618;25.336;2023-02-15T18:06:50;101953.41;;;4.49;99.24
30463;BME280;17256;43.618;25.336;2023-02-15T18:10:16;101726.56;;;3.00;100.00
30463;BME280;17256;43.618;25.336;2023-02-15T18:13:10;102140.28;;;5.48;100.00
30463;BME280;17256;43.618;25.336;2023-02-15T18:15:55;101982.34;;;4.50;100.00
30463;BME280;17256;43.618;25.336;2023-02-15T18:18:37;101889.81;;;3.96;100.00
30463;BME280;17256;43.618;25.336;2023-02-15T18:21:08;101702.47;;;2.95;100.00
30463;BME280;17256;43.618;25.336;2023-02-15T18:23:39;101907.59;;;4.22;100.00
30463;BME280;17256;43.618;25.336;2023-02-15T18:26:17;101915.88;;;4.10;100.00
30463;BME280;17256;43.618;25.336;2023-02-15T18:29:06;101698.66;;;2.87;100.00
30463;BME280;17256;43.618;25.336;2023-02-15T18:32:00;101832.41;;;3.78;100.00
30463;BME280;17256;43.618;25.336;2023-02-15T18:34:29;101905.22;;;4.18;100.00
30463;BME280;17256;43.618;25.336;2023-02-15T18:37:24;101696.69;;;2.89;100.00
30463;BME280;17256;43.618;25.336;2023-02-15T18:39:58;101979.72;;;4.60;100.00
30463;BME280;17256;43.618;25.336;2023-02-15T18:42:32;101721.34;;;2.97;100.00
30463;BME280;17256;43.618;25.336;2023-02-15T18:45:15;101850.78;;;3.86;100.00
30463;BME280;17256;43.618;25.336;2023-02-15T18:47:45;101693.59;;;2.93;100.00
30463;BME280;17256;43.618;25.336;2023-02-15T18:50:17;101750.22;;;3.20;100.00
30463;BME280;17256;43.618;25.336;2023-02-15T18:52:46;101991.69;;;4.69;100.00
30463;BME280;17256;43.618;25.336;2023-02-15T18:55:26;102040.28;;;4.84;100.00
30463;BME280;17256;43.618;25.336;2023-02-15T18:58:03;101861.31;;;3.79;100.00
30463;BME280;17256;43.618;25.336;2023-02-15T19:00:33;101712.34;;;2.85;100.00
30463;BME280;17256;43.618;25.336;2023-02-15T19:03:01;101986.41;;;4.56;100.00
30463;BME280;17256;43.618;25.336;2023-02-15T19:05:50;101953.56;;;4.25;100.00
30463;BME280;17256;43.618;25.336;2023-02-15T19:08:21;101723.56;;;2.81;100.00
30463;BME280;17256;43.618;25.336;2023-02-15T19:10:51;101919.97;;;4.04;100.00
30463;BME280;17256;43.618;25.336;2023-02-15T19:13:19;102053.38;;;4.90;100.00
30463;BME280;17256;43.618;25.336;2023-02-15T19:15:51;101994.09;;;4.51;100.00
30463;BME280;17256;43.618;25.336;2023-02-15T19:18:20;102150.19;;;5.49;100.00
30463;BME280;17256;43.618;25.336;2023-02-15T19:20:51;102164.06;;;5.35;100.00
30463;BME280;17256;43.618;25.336;2023-02-15T19:23:24;101728.72;;;2.50;100.00
30463;BME280;17256;43.618;25.336;2023-02-15T19:25:58;101761.88;;;2.54;100.00
30463;BME280;17256;43.618;25.336;2023-02-15T19:28:32;101994.84;;;4.08;100.00
30463;BME280;17256;43.618;25.336;2023-02-15T19:31:10;102004.63;;;4.11;100.00
30463;BME280;17256;43.618;25.336;2023-02-15T19:33:53;101831.53;;;3.11;100.00
30463;BME280;17256;43.618;25.336;2023-02-15T19:36:24;101768.53;;;2.72;100.00
30463;BME280;17256;43.618;25.336;2023-02-15T19:38:55;102161.81;;;4.97;100.00
30463;BME280;17256;43.618;25.336;2023-02-15T19:41:35;101993.09;;;3.96;100.00
30463;BME280;17256;43.618;25.336;2023-02-15T19:44:03;102006.72;;;4.07;100.00
30463;BME280;17256;43.618;25.336;2023-02-15T19:46:31;101877.34;;;3.26;100.00
30463;BME280;17256;43.618;25.336;2023-02-15T19:48:59;101945.28;;;3.71;100.00
30463;BME280;17256;43.618;25.336;2023-02-15T19:51:31;102022.03;;;4.08;100.00
30463;BME280;17256;43.618;25.336;2023-02-15T19:54:02;101976.81;;;3.74;100.00
30463;BME280;17256;43.618;25.336;2023-02-15T19:56:30;102035.13;;;4.14;100.00
30463;BME280;17256;43.618;25.336;2023-02-15T19:58:59;101706.53;;;2.21;100.00
30463;BME280;17256;43.618;25.336;2023-02-15T20:01:36;102080.03;;;4.42;100.00
30463;BME280;17256;43.618;25.336;2023-02-15T20:04:15;101746.53;;;2.41;100.00
30463;BME280;17256;43.618;25.336;2023-02-15T20:07:34;102159.28;;;4.93;100.00
30463;BME280;17256;43.618;25.336;2023-02-15T20:13:03;101970.75;;;3.92;100.00
30463;BME280;17256;43.618;25.336;2023-02-15T20:15:33;101730.50;;;2.38;100.00
30463;BME280;17256;43.618;25.336;2023-02-15T20:18:03;101939.72;;;3.61;100.00
30463;BME280;17256;43.618;25.336;2023-02-15T20:20:52;101907.25;;;3.49;100.00
30463;BME280;17256;43.618;25.336;2023-02-15T20:23:47;101794.47;;;2.87;100.00
30463;BME280;17256;43.618;25.336;2023-02-15T20:26:18;101901.69;;;3.50;100.00
30463;BME280;17256;43.618;25.336;2023-02-15T20:29:12;101821.88;;;2.95;100.00
30463;BME280;17256;43.618;25.336;2023-02-15T20:31:56;102043.56;;;4.22;100.00
30463;BME280;17256;43.618;25.336;2023-02-15T20:34:27;101870.44;;;3.22;100.00
30463;BME280;17256;43.618;25.336;2023-02-15T20:37:27;101821.66;;;2.98;100.00
30463;BME280;17256;43.618;25.336;2023-02-15T20:39:57;101935.94;;;3.75;100.00
30463;BME280;17256;43.618;25.336;2023-02-15T20:42:45;101807.81;;;2.90;100.00
30463;BME280;17256;43.618;25.336;2023-02-15T20:45:41;101891.53;;;3.30;100.00
30463;BME280;17256;43.618;25.336;2023-02-15T20:48:29;101714.34;;;2.26;100.00
30463;BME280;17256;43.618;25.336;2023-02-15T20:51:26;101613.50;;;1.63;100.00
30463;BME280;17256;43.618;25.336;2023-02-15T20:54:25;101874.47;;;3.17;100.00
30463;BME280;17256;43.618;25.336;2023-02-15T20:57:10;101700.88;;;2.13;100.00
30463;BME280;17256;43.618;25.336;2023-02-15T20:59:41;101790.25;;;2.72;100.00
30463;BME280;17256;43.618;25.336;2023-02-15T21:02:23;101886.72;;;3.22;100.00
30463;BME280;17256;43.618;25.336;2023-02-15T21:05:48;101675.47;;;2.03;100.00
30463;BME280;17256;43.618;25.336;2023-02-15T21:08:17;102128.00;;;4.88;100.00
30463;BME280;17256;43.618;25.336;2023-02-15T21:10:48;101694.84;;;2.21;100.00
30463;BME280;17256;43.618;25.336;2023-02-15T21:13:43;101952.84;;;3.79;100.00
30463;BME280;17256;43.618;25.336;2023-02-15T21:16:15;101746.16;;;2.46;100.00
30463;BME280;17256;43.618;25.336;2023-02-15T21:18:46;101693.69;;;2.01;100.00
30463;BME280;17256;43.618;25.336;2023-02-15T21:21:24;101637.69;;;1.77;100.00
30463;BME280;17256;43.618;25.336;2023-02-15T21:24:52;102071.22;;;4.16;100.00
30463;BME280;17256;43.618;25.336;2023-02-15T21:27:57;101921.16;;;3.44;100.00
30463;BME280;17256;43.618;25.336;2023-02-15T21:30:32;101706.56;;;1.97;100.00
30463;BME280;17256;43.618;25.336;2023-02-15T21:33:21;101701.94;;;1.75;100.00
30463;BME280;17256;43.618;25.336;2023-02-15T21:36:15;101935.06;;;3.17;100.00
30463;BME280;17256;43.618;25.336;2023-02-15T21:38:44;101767.88;;;2.11;100.00
30463;BME280;17256;43.618;25.336;2023-02-15T21:41:19;102138.88;;;4.32;100.00
30463;BME280;17256;43.618;25.336;2023-02-15T21:44:52;101950.91;;;3.23;100.00
30463;BME280;17256;43.618;25.336;2023-02-15T21:47:59;101886.78;;;2.63;100.00
30463;BME280;17256;43.618;25.336;2023-02-15T21:50:39;102145.63;;;4.15;100.00
30463;BME280;17256;43.618;25.336;2023-02-15T21:54:00;101701.88;;;1.40;100.00
30463;BME280;17256;43.618;25.336;2023-02-15T21:57:24;102148.34;;;4.04;100.00
30463;BME280;17256;43.618;25.336;2023-02-15T22:00:28;101877.31;;;2.45;100.00
30463;BME280;17256;43.618;25.336;2023-02-15T22:03:41;101989.22;;;3.07;100.00
30463;BME280;17256;43.618;25.336;2023-02-15T22:06:48;102164.78;;;4.03;100.00
30463;BME280;17256;43.618;25.336;2023-02-15T22:09:49;102136.97;;;4.10;100.00
30463;BME280;17256;43.618;25.336;2023-02-15T22:13:08;101713.19;;;1.58;100.00
30463;BME280;17256;43.618;25.336;2023-02-15T22:15:57;102031.97;;;3.52;100.00
30463;BME280;17256;43.618;25.336;2023-02-15T22:18:44;101730.63;;;1.54;100.00
30463;BME280;17256;43.618;25.336;2023-02-15T22:22:21;101854.44;;;2.25;100.00
30463;BME280;17256;43.618;25.336;2023-02-15T22:26:04;101843.50;;;1.90;100.00
30463;BME280;17256;43.618;25.336;2023-02-15T22:33:31;102150.72;;;3.74;100.00
30463;BME280;17256;43.618;25.336;2023-02-15T22:37:02;102141.16;;;3.68;100.00
30463;BME280;17256;43.618;25.336;2023-02-15T22:40:40;101864.16;;;2.04;100.00
30463;BME280;17256;43.618;25.336;2023-02-15T22:44:24;102143.06;;;3.79;100.00
30463;BME280;17256;43.618;25.336;2023-02-15T22:47:07;102145.72;;;3.67;100.00
30463;BME280;17256;43.618;25.336;2023-02-15T22:50:31;102144.00;;;3.66;100.00
30463;BME280;17256;43.618;25.336;2023-02-15T22:54:03;102145.69;;;3.56;100.00
30463;BME280;17256;43.618;25.336;2023-02-15T22:57:50;102151.47;;;3.52;100.00
30463;BME280;17256;43.618;25.336;2023-02-15T23:01:29;101899.63;;;1.88;100.00
30463;BME280;17256;43.618;25.336;2023-02-15T23:04:34;102050.38;;;2.76;100.00
30463;BME280;17256;43.618;25.336;2023-02-15T23:11:39;101843.59;;;1.52;100.00
30463;BME280;17256;43.618;25.336;2023-02-15T23:19:19;102149.31;;;3.20;100.00
30463;BME280;17256;43.618;25.336;2023-02-15T23:22:55;101795.44;;;0.93;100.00
30463;BME280;17256;43.618;25.336;2023-02-15T23:29:56;101713.97;;;0.22;100.00
30463;BME280;17256;43.618;25.336;2023-02-15T23:33:25;102148.91;;;2.77;100.00
30463;BME280;17256;43.618;25.336;2023-02-15T23:37:34;102159.53;;;2.80;100.00
